Time;durP1;ratioP1;P1;durP2;ratioP2;P2;SDS_P1;SDS_P2;PMS_P1;PMS_P2;Temp;Humidity;BMP_temperature;BMP_pressure;BME280_temperature;BME280_humidity;BME280_pressure;Samples;Min_cycle;Max_cycle;Signal;HPM_P1;HPM_P2
2022/05/04 00:00:49;;;;;;;35.13;23.92;;;;;;;9.19;87.93;98067.06;1798810;79;20872;-80
2022/05/04 00:03:15;;;;;;;30.35;22.07;;;;;;;9.15;88.17;98067.34;1799090;78;20986;-80
2022/05/04 00:05:40;;;;;;;37.28;24.98;;;;;;;9.13;88.19;98067.32;1799291;79;21603;-80
2022/05/04 00:08:07;;;;;;;34.43;23.75;;;;;;;9.13;87.50;98066.78;1798777;79;20861;-89
2022/05/04 00:10:34;;;;;;;35.38;23.75;;;;;;;9.15;87.67;98071.94;1799358;78;20974;-89
2022/05/04 00:13:00;;;;;;;34.85;24.52;;;;;;;9.16;87.67;98070.86;1798800;79;21500;-79
2022/05/04 00:15:27;;;;;;;31.42;23.35;;;;;;;9.17;87.45;98071.13;1799453;79;20998;-88
2022/05/04 00:17:52;;;;;;;33.50;23.25;;;;;;;9.15;87.84;98070.59;1798845;79;21832;-88
2022/05/04 00:20:19;;;;;;;28.32;21.82;;;;;;;9.08;87.89;98072.20;1823733;78;20934;-89
2022/05/04 00:22:44;;;;;;;35.45;23.55;;;;;;;9.07;88.04;98076.53;1831522;77;20958;-89
2022/05/04 00:25:11;;;;;;;29.32;21.93;;;;;;;8.99;88.22;98072.45;1829344;78;20986;-88
2022/05/04 00:27:37;;;;;;;30.92;22.35;;;;;;;8.89;87.94;98087.31;1793141;79;21033;-80
2022/05/04 00:30:05;;;;;;;35.85;24.72;;;;;;;8.80;89.22;98078.06;1806696;79;21136;-89
2022/05/04 00:32:31;;;;;;;28.55;20.37;;;;;;;8.75;87.85;98085.09;1802418;79;21060;-89
2022/05/04 00:34:57;;;;;;;30.20;23.95;;;;;;;8.75;88.08;98083.75;1794436;79;22347;-89
2022/05/04 00:37:23;;;;;;;30.05;23.18;;;;;;;8.68;87.92;98085.88;1839502;77;21045;-89
2022/05/04 00:39:49;;;;;;;31.90;23.60;;;;;;;8.63;87.82;98086.39;1813870;78;21541;-79
2022/05/04 00:42:17;;;;;;;30.32;23.57;;;;;;;8.55;88.29;98085.05;1799233;78;21285;-79
2022/05/04 00:44:47;;;;;;;36.67;25.17;;;;;;;8.48;87.93;98085.83;1799425;79;21003;-88
2022/05/04 00:47:14;;;;;;;31.90;22.93;;;;;;;8.37;88.52;98090.34;1799652;78;20990;-79
2022/05/04 00:49:41;;;;;;;31.50;22.17;;;;;;;8.25;90.39;98095.67;1833713;78;21422;-88
2022/05/04 00:52:08;;;;;;;30.45;20.65;;;;;;;8.16;90.70;98101.56;1802980;77;21033;-88
2022/05/04 00:54:35;;;;;;;34.35;22.42;;;;;;;8.19;89.45;98098.33;1786903;78;21135;-80
2022/05/04 00:57:02;;;;;;;32.13;22.48;;;;;;;8.20;89.57;98098.64;1804344;79;20988;-88
2022/05/04 00:59:28;;;;;;;29.87;22.55;;;;;;;8.21;89.25;98102.14;1764405;81;21052;-80
2022/05/04 01:01:53;;;;;;;27.82;19.90;;;;;;;8.17;89.75;98095.63;1792579;79;21093;-88
2022/05/04 01:04:19;;;;;;;29.57;21.35;;;;;;;8.20;89.24;98104.55;1793121;80;21168;-88
2022/05/04 01:06:46;;;;;;;31.52;21.23;;;;;;;8.17;89.56;98105.08;1799246;79;21115;-89
2022/05/04 01:09:12;;;;;;;30.72;21.77;;;;;;;8.18;89.76;98108.05;1811008;78;21448;-88
2022/05/04 01:11:38;;;;;;;34.27;23.42;;;;;;;8.15;89.73;98109.39;1799826;79;20850;-88
2022/05/04 01:14:08;;;;;;;30.15;22.65;;;;;;;8.11;89.64;98116.38;1825726;78;20962;-80
2022/05/04 01:16:35;;;;;;;29.42;21.68;;;;;;;8.11;90.21;98115.56;1831886;78;21005;-88
2022/05/04 01:19:02;;;;;;;31.95;23.52;;;;;;;8.04;92.01;98105.56;1831790;78;21600;-88
2022/05/04 01:21:28;;;;;;;35.75;23.15;;;;;;;8.01;91.78;98110.92;1831807;78;21049;-89
2022/05/04 01:23:54;;;;;;;35.80;22.55;;;;;;;7.93;92.72;98111.41;1831548;78;20986;-79
2022/05/04 01:26:20;;;;;;;30.20;21.42;;;;;;;7.89;92.27;98115.17;1831785;78;21008;-80
2022/05/04 01:28:46;;;;;;;28.95;21.93;;;;;;;7.86;91.16;98116.21;1831576;78;20923;-79
2022/05/04 01:31:12;;;;;;;27.98;17.73;;;;;;;7.82;91.17;98119.16;1816696;77;21134;-89
2022/05/04 01:33:39;;;;;;;30.62;22.50;;;;;;;7.82;90.58;98128.61;1799094;79;21489;-79
2022/05/04 01:36:06;;;;;;;30.65;22.02;;;;;;;7.79;91.02;98119.16;1799367;79;21469;-79
2022/05/04 01:38:33;;;;;;;29.35;21.35;;;;;;;7.77;91.32;98119.92;1798650;79;21042;-89
2022/05/04 01:40:59;;;;;;;30.10;20.08;;;;;;;7.73;91.52;98121.53;1771532;79;21067;-89
2022/05/04 01:43:25;;;;;;;31.27;21.45;;;;;;;7.72;91.57;98121.26;1791461;78;21117;-79
2022/05/04 01:45:51;;;;;;;30.97;21.45;;;;;;;7.74;91.64;98127.73;1831925;78;20831;-79
2022/05/04 01:48:17;;;;;;;36.58;22.22;;;;;;;7.76;92.04;98132.33;1817946;78;20998;-80
2022/05/04 01:50:43;;;;;;;29.72;23.90;;;;;;;7.76;92.13;98127.75;1799483;79;21567;-89
2022/05/04 01:53:08;;;;;;;35.00;23.12;;;;;;;7.73;91.96;98126.11;1808965;78;20895;-80
2022/05/04 01:55:34;;;;;;;40.03;22.55;;;;;;;7.71;92.14;98122.33;1799368;79;21299;-79
2022/05/04 01:58:01;;;;;;;32.10;22.77;;;;;;;7.69;93.22;98122.29;1799000;78;20851;-89
2022/05/04 02:00:27;;;;;;;30.35;20.65;;;;;;;7.72;91.87;98125.30;1799395;79;21007;-79
2022/05/04 02:02:54;;;;;;;29.35;21.93;;;;;;;7.72;91.47;98124.49;1807597;78;20981;-88
2022/05/04 02:05:21;;;;;;;31.57;22.32;;;;;;;7.73;91.46;98126.92;1832163;78;21010;-89
2022/05/04 02:07:48;;;;;;;30.80;21.23;;;;;;;7.72;91.29;98125.84;1832147;78;21447;-79
2022/05/04 02:10:14;;;;;;;31.75;21.65;;;;;;;7.70;91.42;98122.59;1771092;79;21497;-89
2022/05/04 02:12:40;;;;;;;27.95;21.50;;;;;;;7.69;91.96;98118.25;1832002;77;20910;-79
2022/05/04 02:15:08;;;;;;;29.87;22.30;;;;;;;7.62;92.13;98117.95;1810075;78;20922;-88
2022/05/04 02:17:34;;;;;;;30.57;20.35;;;;;;;7.58;91.79;98115.48;1799360;79;21141;-89
2022/05/04 02:20:01;;;;;;;29.82;20.48;;;;;;;7.57;91.82;98121.13;1797148;78;21332;-89
2022/05/04 02:22:27;;;;;;;29.25;20.75;;;;;;;7.54;91.53;98111.69;1831825;78;20969;-89
2022/05/04 02:24:53;;;;;;;30.35;22.05;;;;;;;7.51;91.59;98118.11;1832016;78;21021;-88
2022/05/04 02:27:19;;;;;;;29.32;21.23;;;;;;;7.47;91.56;98112.97;1831872;78;20855;-79
2022/05/04 02:29:45;;;;;;;28.07;19.45;;;;;;;7.47;91.62;98113.78;1831687;78;20819;-89
2022/05/04 02:32:11;;;;;;;25.92;18.80;;;;;;;7.46;91.49;98122.94;1798954;78;21341;-88
2022/05/04 02:37:54;;;;;;;26.93;18.17;;;;;;;7.43;91.50;98118.58;1802736;79;20862;-88
2022/05/04 02:39:49;;;;;;;29.70;19.70;;;;;;;7.33;92.23;98122.00;1793101;79;21391;-89
2022/05/04 02:42:15;;;;;;;30.23;20.40;;;;;;;7.33;92.33;98117.95;1832779;78;20847;-80
2022/05/04 02:44:41;;;;;;;30.00;21.62;;;;;;;7.34;92.44;98124.97;1832049;78;21840;-79
2022/05/04 02:47:07;;;;;;;39.98;23.50;;;;;;;7.35;92.68;98123.93;1831686;78;21627;-80
2022/05/04 02:49:33;;;;;;;27.05;19.42;;;;;;;7.33;92.73;98127.39;1811994;78;21037;-88
2022/05/04 02:51:59;;;;;;;30.35;20.62;;;;;;;7.34;92.92;98131.71;1802202;79;20895;-79
2022/05/04 02:54:25;;;;;;;29.27;21.27;;;;;;;7.34;92.86;98127.13;1785641;79;20967;-79
2022/05/04 02:56:51;;;;;;;32.78;21.85;;;;;;;7.29;92.99;98127.64;1799156;78;21000;-88
2022/05/04 02:59:17;;;;;;;27.05;20.10;;;;;;;7.31;92.58;98122.80;1826446;78;21584;-79
2022/05/04 03:04:32;;;;;;;25.70;16.27;;;;;;;7.40;92.63;98127.19;1788652;79;21062;-89
2022/05/04 03:06:58;;;;;;;32.75;22.32;;;;;;;7.38;92.74;98127.45;1793051;80;21077;-79
2022/05/04 03:09:23;;;;;;;30.37;21.05;;;;;;;7.32;92.81;98125.77;1792560;79;22003;-89
2022/05/04 03:11:55;;;;;;;28.42;18.52;;;;;;;7.31;93.08;98127.66;1792908;80;20942;-79
2022/05/04 03:14:23;;;;;;;28.67;20.43;;;;;;;7.36;93.06;98121.51;1812454;78;20958;-80
2022/05/04 03:16:51;;;;;;;30.08;21.10;;;;;;;7.33;92.97;98128.73;1832008;78;21017;-79
2022/05/04 03:19:17;;;;;;;31.17;17.95;;;;;;;7.31;93.05;98126.84;1804423;78;21007;-88
2022/05/04 03:21:43;;;;;;;32.73;19.82;;;;;;;7.33;93.16;98134.95;1821442;78;21658;-89
2022/05/04 03:24:09;;;;;;;33.05;22.52;;;;;;;7.35;93.12;98130.13;1831700;78;21002;-84
2022/05/04 03:26:36;;;;;;;36.70;23.45;;;;;;;7.36;93.32;98133.64;1831989;78;21113;-79
2022/05/04 03:29:04;;;;;;;31.75;22.13;;;;;;;7.43;92.80;98132.87;1831681;78;21018;-89
2022/05/04 03:31:30;;;;;;;29.65;21.20;;;;;;;7.49;92.46;98130.50;1830881;77;21009;-80
2022/05/04 03:33:56;;;;;;;30.68;20.17;;;;;;;7.53;92.22;98129.47;1805734;78;21279;-80
2022/05/04 03:36:22;;;;;;;28.10;18.95;;;;;;;7.50;92.11;98133.47;1778364;79;21006;-88
2022/05/04 03:38:48;;;;;;;29.07;20.05;;;;;;;7.48;92.06;98133.46;1819956;78;20875;-79
2022/05/04 03:41:14;;;;;;;31.25;20.88;;;;;;;7.43;91.85;98142.30;1831873;78;20863;-89
2022/05/04 03:43:40;;;;;;;34.40;24.47;;;;;;;7.43;92.36;98145.53;1829435;78;20894;-79
2022/05/04 03:46:16;;;;;;;36.95;24.05;;;;;;;7.41;92.98;98148.50;1799271;79;21298;-80
2022/05/04 03:48:48;;;;;;;37.90;23.55;;;;;;;7.35;93.21;98150.89;1798755;79;21018;-79
2022/05/04 03:51:16;;;;;;;36.95;22.65;;;;;;;7.38;92.63;98145.52;1799517;79;20984;-79
2022/05/04 03:53:42;;;;;;;34.58;23.55;;;;;;;7.37;92.52;98149.28;1782623;78;20996;-87
2022/05/04 03:56:08;;;;;;;42.75;24.00;;;;;;;7.37;93.46;98146.58;1802455;78;21126;-77
2022/05/04 03:58:34;;;;;;;41.75;24.57;;;;;;;7.44;92.56;98149.35;1792075;79;21129;-86
2022/05/04 04:01:00;;;;;;;39.80;25.08;;;;;;;7.46;93.48;98153.14;1802410;79;21043;-86
2022/05/04 04:03:26;;;;;;;41.63;26.12;;;;;;;7.52;92.90;98158.33;1802341;79;21028;-77
2022/05/04 04:05:52;;;;;;;39.23;24.25;;;;;;;7.55;92.81;98157.80;1791130;79;20997;-87
2022/05/04 04:08:18;;;;;;;34.33;22.55;;;;;;;7.59;93.19;98156.73;1791035;79;21032;-87
2022/05/04 04:10:44;;;;;;;40.80;25.25;;;;;;;7.63;93.50;98155.98;1828460;78;21132;-86
2022/05/04 04:13:10;;;;;;;37.10;22.58;;;;;;;7.64;94.19;98163.53;1831467;78;20902;-78
2022/05/04 04:15:36;;;;;;;27.95;18.92;;;;;;;7.68;93.47;98167.33;1831747;78;20898;-87
2022/05/04 04:18:02;;;;;;;30.55;21.27;;;;;;;7.71;92.57;98174.93;1831588;78;20850;-77
2022/05/04 04:23:12;;;;;;;37.60;23.32;;;;;;;7.71;93.88;98177.63;1831671;78;21450;-89
2022/05/04 04:25:38;;;;;;;28.98;20.77;;;;;;;7.89;93.10;98183.97;1831958;78;20969;-80
2022/05/04 04:28:04;;;;;;;28.12;20.20;;;;;;;8.08;91.95;98180.86;1831649;78;20887;-81
2022/05/04 04:30:30;;;;;;;31.50;21.25;;;;;;;8.23;91.82;98183.67;1824416;78;21001;-90
2022/05/04 04:32:56;;;;;;;29.87;19.98;;;;;;;8.41;91.43;98182.46;1812594;78;20964;-80
2022/05/04 04:35:22;;;;;;;31.93;21.02;;;;;;;8.59;91.35;98190.12;1817985;77;21772;-90
2022/05/04 04:37:48;;;;;;;34.38;24.72;;;;;;;8.82;91.24;98185.37;1836274;78;20866;-90
2022/05/04 04:40:14;;;;;;;43.52;20.30;;;;;;;8.99;90.76;98190.03;1821357;78;20895;-80
2022/05/04 04:42:40;;;;;;;29.25;20.68;;;;;;;9.18;89.96;98194.41;1799235;79;20931;-80
2022/05/04 04:45:07;;;;;;;25.70;19.37;;;;;;;9.21;89.55;98199.27;1799502;79;20915;-80
2022/05/04 04:47:33;;;;;;;34.38;24.12;;;;;;;9.28;89.37;98197.94;1799261;79;22106;-89
2022/05/04 04:49:59;;;;;;;28.40;21.33;;;;;;;9.45;88.96;98191.48;1798902;79;20919;-90
2022/05/04 04:52:25;;;;;;;28.02;20.57;;;;;;;9.58;88.43;98191.79;1798659;79;20861;-79
2022/05/04 04:54:51;;;;;;;31.68;20.23;;;;;;;9.72;87.82;98189.35;1782630;79;22052;-80
2022/05/04 04:57:17;;;;;;;28.27;18.17;;;;;;;9.77;87.44;98181.79;1798731;78;21678;-80
2022/05/04 04:59:43;;;;;;;25.90;18.65;;;;;;;9.89;86.89;98189.89;1799063;79;21272;-88
2022/05/04 05:02:10;;;;;;;21.65;18.02;;;;;;;9.95;86.98;98185.84;1780259;79;21488;-86
2022/05/04 05:04:36;;;;;;;23.10;17.45;;;;;;;10.06;87.17;98186.10;1830105;78;20985;-80
2022/05/04 05:07:02;;;;;;;25.45;18.07;;;;;;;10.34;86.90;98183.38;1790028;79;21551;-90
2022/05/04 05:09:28;;;;;;;23.57;17.10;;;;;;;10.34;86.90;98183.38;1774492;78;21532;-81
2022/05/04 05:11:54;;;;;;;23.45;18.40;;;;;;;10.52;86.48;98199.08;1792380;79;21127;-81
2022/05/04 05:17:05;;;;;;;27.95;20.55;;;;;;;10.77;85.42;98191.42;1796875;79;21237;-80
2022/05/04 05:19:31;;;;;;;27.55;18.87;;;;;;;10.86;85.16;98193.02;1799265;79;20998;-80
2022/05/04 05:21:57;;;;;;;27.05;19.05;;;;;;;10.97;84.54;98191.33;1799421;79;21036;-90
2022/05/04 05:24:23;;;;;;;29.87;18.17;;;;;;;10.89;83.83;98194.61;1830671;78;21155;-90
2022/05/04 05:26:49;;;;;;;21.57;17.52;;;;;;;10.97;83.92;98192.68;1832067;78;20933;-80
2022/05/04 05:29:15;;;;;;;20.60;17.40;;;;;;;11.14;83.94;98190.98;1819708;77;20980;-80
2022/05/04 05:31:40;;;;;;;20.50;16.75;;;;;;;11.45;84.00;98193.50;1802889;79;20886;-80
2022/05/04 05:34:06;;;;;;;24.55;15.83;;;;;;;11.77;83.27;98191.66;1835242;78;21547;-91
2022/05/04 05:36:32;;;;;;;24.05;17.92;;;;;;;12.10;82.13;98192.79;1821877;78;21299;-81
2022/05/04 05:38:58;;;;;;;26.48;18.62;;;;;;;12.20;82.15;98189.16;1785247;79;20923;-81
2022/05/04 05:41:24;;;;;;;20.40;17.32;;;;;;;12.47;81.97;98197.59;1799577;79;20934;-91
2022/05/04 05:43:51;;;;;;;27.42;18.62;;;;;;;12.71;81.04;98201.69;1787822;78;21058;-80
2022/05/04 05:46:17;;;;;;;18.20;16.20;;;;;;;12.93;80.65;98203.34;1831237;77;20966;-91
2022/05/04 05:48:43;;;;;;;28.73;17.23;;;;;;;13.12;79.43;98202.58;1802105;77;22056;-80
2022/05/04 05:51:09;;;;;;;22.48;16.00;;;;;;;13.28;78.51;98197.23;1791267;79;20834;-90
2022/05/04 05:53:35;;;;;;;19.40;15.28;;;;;;;13.36;77.49;98196.57;1803179;78;20882;-87
2022/05/04 05:56:01;;;;;;;25.40;16.12;;;;;;;13.54;75.57;98198.48;1792495;78;20879;-80
2022/05/04 05:58:27;;;;;;;26.60;16.48;;;;;;;13.57;76.02;98193.00;1809697;78;20974;-82
2022/05/04 06:00:53;;;;;;;26.05;16.23;;;;;;;13.61;76.41;98195.41;1819417;77;21806;-80
2022/05/04 06:03:19;;;;;;;22.58;15.43;;;;;;;13.64;75.87;98189.91;1798146;77;20879;-80
2022/05/04 06:05:45;;;;;;;22.20;17.17;;;;;;;13.69;75.50;98193.38;1805418;77;20965;-92
2022/05/04 06:08:11;;;;;;;22.50;16.95;;;;;;;13.77;75.24;98194.07;1822342;77;20862;-89
2022/05/04 06:10:37;;;;;;;19.90;16.90;;;;;;;13.89;74.41;98188.71;1781445;78;20956;-80
2022/05/04 06:13:03;;;;;;;21.80;15.95;;;;;;;14.00;74.02;98192.33;1797108;78;21846;-80
2022/05/04 06:15:29;;;;;;;21.57;14.85;;;;;;;14.17;72.88;98186.87;1798505;78;20986;-91
2022/05/04 06:17:55;;;;;;;19.92;15.25;;;;;;;14.11;71.54;98182.89;1785470;79;21045;-80
2022/05/04 06:20:26;;;;;;;20.55;15.00;;;;;;;14.03;71.75;98180.05;1804230;78;20994;-91
2022/05/04 06:22:52;;;;;;;18.75;16.73;;;;;;;13.94;72.25;98184.55;1797034;77;21026;-80
2022/05/04 06:25:18;;;;;;;28.73;19.60;;;;;;;13.87;72.79;98185.48;1791714;78;21364;-80
2022/05/04 06:27:44;;;;;;;25.43;18.12;;;;;;;13.82;72.77;98194.53;1787211;78;20895;-83
2022/05/04 06:35:40;;;;;;;27.42;18.10;;;;;;;13.82;72.67;98187.16;1776508;79;20997;-79
2022/05/04 06:38:05;;;;;;;20.45;15.90;;;;;;;14.08;72.77;98192.20;1795262;78;20993;-91
2022/05/04 06:40:31;;;;;;;21.40;16.87;;;;;;;14.67;71.67;98188.71;1780487;78;20873;-80
2022/05/04 06:42:57;;;;;;;17.62;13.70;;;;;;;14.95;70.66;98190.08;1796215;77;20943;-80
2022/05/04 06:45:24;;;;;;;17.92;12.93;;;;;;;15.01;70.49;98186.14;1774667;78;20982;-80
2022/05/04 06:47:49;;;;;;;19.52;13.62;;;;;;;15.07;70.40;98188.22;1759605;79;20978;-80
2022/05/04 06:50:16;;;;;;;16.93;13.53;;;;;;;15.05;69.99;98189.09;1787281;78;21406;-92
2022/05/04 06:52:42;;;;;;;17.65;13.18;;;;;;;15.28;69.54;98189.39;1779794;78;21135;-80
2022/05/04 06:55:08;;;;;;;17.25;14.20;;;;;;;15.59;68.75;98185.99;1790295;78;20895;-80
2022/05/04 06:57:35;;;;;;;17.30;13.32;;;;;;;15.84;67.19;98189.53;1790924;78;21046;-80
2022/05/04 07:00:06;;;;;;;15.68;12.53;;;;;;;15.83;68.21;98179.72;1796232;78;21037;-91
2022/05/04 07:02:35;;;;;;;14.40;11.08;;;;;;;15.93;67.74;98172.64;1798122;76;21394;-91
2022/05/04 07:05:02;;;;;;;13.30;11.90;;;;;;;15.99;67.00;98176.06;1794337;77;21768;-91
2022/05/04 07:07:28;;;;;;;14.85;10.82;;;;;;;16.13;67.14;98176.78;1806347;78;21150;-92
2022/05/04 07:09:54;;;;;;;14.55;10.88;;;;;;;16.06;64.85;98176.41;1806338;77;21473;-80
2022/05/04 07:12:21;;;;;;;12.70;9.90;;;;;;;16.81;65.73;98176.11;1797738;77;20890;-80
2022/05/04 07:14:47;;;;;;;12.68;11.22;;;;;;;17.48;65.04;98171.12;1787417;77;21437;-80
2022/05/04 07:17:12;;;;;;;17.82;11.80;;;;;;;17.88;64.96;98177.85;1798228;77;20896;-80
2022/05/04 07:19:38;;;;;;;17.70;11.68;;;;;;;18.17;64.52;98174.98;1793305;78;20953;-89
2022/05/04 07:22:04;;;;;;;15.68;12.20;;;;;;;18.90;63.33;98166.72;1795230;78;20872;-91
2022/05/04 07:24:30;;;;;;;12.55;11.18;;;;;;;19.49;62.49;98172.19;1795530;77;21636;-91
2022/05/04 07:26:56;;;;;;;12.13;10.40;;;;;;;19.96;61.07;98170.84;1792119;78;21136;-81
2022/05/04 07:29:22;;;;;;;12.75;10.70;;;;;;;20.26;55.31;98169.37;1776868;77;20958;-80
2022/05/04 07:31:48;;;;;;;13.38;10.20;;;;;;;20.86;57.59;98160.21;1792976;77;21036;-81
2022/05/04 07:34:14;;;;;;;13.08;9.70;;;;;;;20.97;53.79;98164.11;1788213;77;20875;-81
2022/05/04 07:36:40;;;;;;;13.68;9.13;;;;;;;21.40;50.70;98169.03;1792236;78;20871;-80
2022/05/04 07:39:06;;;;;;;11.45;8.60;;;;;;;21.26;50.32;98169.94;1780139;78;21095;-80
2022/05/04 07:44:16;;;;;;;9.38;8.38;;;;;;;22.05;53.15;98178.60;1791509;77;21163;-81
2022/05/04 07:46:43;;;;;;;14.80;7.97;;;;;;;22.46;47.47;98172.68;1796320;77;21501;-81
2022/05/04 07:49:09;;;;;;;13.93;7.92;;;;;;;23.03;48.18;98173.37;1792110;77;21050;-81
2022/05/04 07:51:35;;;;;;;12.60;9.65;;;;;;;22.98;47.23;98173.63;1791574;77;21107;-80
2022/05/04 07:54:01;;;;;;;9.68;7.25;;;;;;;22.43;45.56;98176.74;1800202;77;20886;-81
2022/05/04 07:56:27;;;;;;;10.23;6.92;;;;;;;22.46;48.55;98167.16;1787192;77;20968;-80
2022/05/04 07:58:52;;;;;;;10.53;7.97;;;;;;;22.96;44.36;98169.05;1794581;77;20874;-81
2022/05/04 08:04:18;;;;;;;7.78;7.05;;;;;;;23.32;44.58;98167.34;1783102;78;21099;-81
2022/05/04 08:06:45;;;;;;;10.98;7.47;;;;;;;23.51;44.34;98156.92;1787319;78;20993;-81
2022/05/04 08:09:10;;;;;;;9.38;6.03;;;;;;;23.03;39.13;98158.97;1794572;77;21078;-81
2022/05/04 08:11:37;;;;;;;9.45;6.15;;;;;;;23.34;39.60;98160.89;1775915;78;40279;-81
2022/05/04 08:14:03;;;;;;;22.42;7.58;;;;;;;23.47;42.10;98158.79;1804064;78;20934;-90
2022/05/04 08:16:29;;;;;;;7.65;6.92;;;;;;;23.29;40.49;98158.97;1787447;78;21090;-93
2022/05/04 08:18:55;;;;;;;9.00;6.75;;;;;;;23.18;41.34;98161.50;1797391;78;20986;-91
2022/05/04 08:21:21;;;;;;;9.00;7.42;;;;;;;23.13;42.50;98160.38;1792631;78;22265;-81
2022/05/04 08:23:47;;;;;;;8.33;7.45;;;;;;;23.01;41.63;98157.16;1798196;78;20939;-81
2022/05/04 08:26:13;;;;;;;8.73;7.55;;;;;;;23.31;41.80;98161.59;1791501;78;22349;-93
2022/05/04 08:28:39;;;;;;;9.85;7.80;;;;;;;23.94;40.85;98161.20;1802456;78;21216;-92
2022/05/04 08:31:05;;;;;;;10.88;7.50;;;;;;;24.75;41.14;98156.42;1798965;78;21073;-94
2022/05/04 08:33:31;;;;;;;10.38;7.55;;;;;;;25.26;39.57;98157.46;1787967;77;20967;-93
2022/05/04 08:35:57;;;;;;;9.93;7.47;;;;;;;25.61;39.68;98158.55;1796453;77;21651;-94
2022/05/04 08:38:23;;;;;;;10.63;7.40;;;;;;;25.19;39.89;98151.22;1798057;77;20900;-89
2022/05/04 08:40:54;;;;;;;7.60;6.83;;;;;;;25.32;38.91;98154.59;1808818;77;21299;-93
2022/05/04 08:43:24;;;;;;;8.65;6.58;;;;;;;25.35;38.81;98157.98;1797781;77;21516;-90
2022/05/04 08:45:49;;;;;;;7.83;7.05;;;;;;;26.01;38.09;98161.28;1791656;77;21900;-93
2022/05/04 08:48:15;;;;;;;7.83;6.70;;;;;;;26.23;34.95;98165.09;1790542;78;21066;-91
2022/05/04 08:50:41;;;;;;;11.38;7.50;;;;;;;26.89;35.89;98158.64;1793501;78;21591;-90
2022/05/04 08:53:08;;;;;;;10.98;6.87;;;;;;;27.64;34.26;98158.40;1797200;78;21225;-93
2022/05/04 08:55:35;;;;;;;6.85;5.80;;;;;;;27.07;32.05;98157.42;1800101;77;21380;-93
2022/05/04 08:58:01;;;;;;;7.97;5.87;;;;;;;24.96;34.56;98162.33;1773011;79;21077;-94
2022/05/04 09:00:27;;;;;;;8.60;5.60;;;;;;;23.96;36.07;98159.67;1794611;78;21485;-91
2022/05/04 09:02:53;;;;;;;9.33;6.17;;;;;;;23.44;36.75;98164.25;1786594;79;21572;-92
2022/05/04 09:05:23;;;;;;;8.43;6.22;;;;;;;23.97;36.98;98162.65;1786063;77;21074;-93
2022/05/04 09:07:53;;;;;;;8.88;5.62;;;;;;;22.87;36.67;98161.52;1802761;78;20963;-94
2022/05/04 09:10:27;;;;;;;7.95;6.12;;;;;;;22.51;38.29;98158.63;1773918;79;20961;-94
2022/05/04 09:12:55;;;;;;;9.88;5.33;;;;;;;22.08;38.99;98162.77;1798617;79;21017;-94
2022/05/04 09:15:27;;;;;;;7.15;5.65;;;;;;;21.57;38.72;98162.45;1791285;78;21064;-93
2022/05/04 09:18:02;;;;;;;6.25;5.60;;;;;;;20.90;36.96;98162.49;1774627;79;21292;-91
2022/05/04 09:20:47;;;;;;;7.87;5.55;;;;;;;20.80;37.37;98162.38;1792239;79;21018;-93
2022/05/04 09:23:28;;;;;;;9.03;5.35;;;;;;;22.78;35.49;98163.05;1800275;77;21009;-81
2022/05/04 09:25:56;;;;;;;6.65;5.22;;;;;;;25.04;34.88;98150.80;1789253;78;21081;-81
2022/05/04 09:28:28;;;;;;;;;;;;;;;26.63;33.15;98154.05;1812307;78;21159;-94
2022/05/04 09:30:54;;;;;;;;;;;;;;;27.28;27.86;98148.45;1787365;77;20981;-81
2022/05/04 09:33:27;;;;;;;7.53;5.60;;;;;;;28.75;28.98;98154.03;1783806;78;20162;-81
2022/05/04 09:35:56;;;;;;;7.00;4.92;;;;;;;29.51;25.52;98152.25;1802712;76;21029;-82
2022/05/04 09:46:42;;;;;;;7.03;4.42;;;;;;;29.62;23.88;98146.63;1744963;79;21035;-92
2022/05/04 09:49:19;;;;;;;6.35;3.80;;;;;;;30.32;23.16;98148.34;1821309;77;21006;-92
2022/05/04 09:51:53;;;;;;;4.87;3.52;;;;;;;30.51;22.84;98142.06;1807066;77;21010;-94
2022/05/04 09:54:29;;;;;;;5.33;3.83;;;;;;;30.26;22.93;98143.61;1790582;78;21476;-90
2022/05/04 09:57:01;;;;;;;3.95;3.55;;;;;;;28.89;23.52;98140.11;1800107;78;21058;-91
2022/05/04 09:59:29;;;;;;;6.83;4.45;;;;;;;28.87;22.14;98143.87;1804313;78;21079;-95
2022/05/04 10:01:55;;;;;;;6.03;3.98;;;;;;;30.15;21.44;98138.66;1788413;79;21076;-94
2022/05/04 10:04:23;;;;;;;4.72;3.60;;;;;;;29.25;20.32;98134.52;1797173;78;21080;-89
2022/05/04 10:06:50;;;;;;;4.47;3.90;;;;;;;30.10;21.87;98140.50;1809653;77;21813;-95
2022/05/04 10:09:16;;;;;;;4.60;4.10;;;;;;;28.96;22.64;98139.31;1800946;78;21128;-94
2022/05/04 10:11:42;;;;;;;6.70;4.33;;;;;;;26.67;23.93;98138.81;1793739;77;21013;-82
2022/05/04 10:14:12;;;;;;;6.35;4.03;;;;;;;27.51;24.24;98132.87;1798738;78;20907;-81
2022/05/04 10:16:50;;;;;;;5.35;4.25;;;;;;;26.16;25.73;98136.68;1797272;77;21069;-81
2022/05/04 10:19:23;;;;;;;;;;;;;;;25.62;26.61;98139.34;1773645;77;21040;-82
2022/05/04 10:21:51;;;;;;;8.20;4.30;;;;;;;25.20;27.43;98133.41;1804716;77;21061;-81
2022/05/04 10:24:17;;;;;;;5.35;3.90;;;;;;;25.92;26.11;98135.20;1786806;78;21108;-81
2022/05/04 10:26:45;;;;;;;6.05;4.70;;;;;;;24.43;27.35;98132.30;1800266;78;21053;-81
2022/05/04 10:32:36;;;;;;;5.15;4.17;;;;;;;25.40;27.24;98129.95;1789189;77;21034;-81
2022/05/04 10:35:29;;;;;;;8.75;3.98;;;;;;;25.86;25.73;98127.80;1787711;76;21297;-81
2022/05/04 10:38:04;;;;;;;7.65;4.97;;;;;;;28.19;23.58;98114.48;1796722;77;21053;-81
2022/05/04 10:40:40;;;;;;;10.90;4.28;;;;;;;29.70;21.16;98114.70;1789562;77;21069;-82
2022/05/04 10:43:08;;;;;;;7.15;4.22;;;;;;;29.93;20.97;98110.81;1807471;77;21113;-81
2022/05/04 10:45:36;;;;;;;6.70;4.60;;;;;;;31.32;21.08;98102.06;1800288;77;21105;-82
2022/05/04 10:48:24;;;;;;;6.55;4.67;;;;;;;32.92;18.12;98107.58;1768105;78;21103;-82
2022/05/04 10:51:19;;;;;;;9.38;5.85;;;;;;;31.56;19.33;98103.00;1816881;77;26652;-82
2022/05/04 10:53:53;;;;;;;6.10;4.58;;;;;;;30.83;20.18;98103.48;1800797;78;20949;-86
2022/05/04 10:56:23;;;;;;;8.98;4.70;;;;;;;29.15;22.41;98090.91;1807874;78;21068;-94
2022/05/04 10:58:54;;;;;;;5.80;4.03;;;;;;;26.29;23.89;98100.50;1807907;77;21010;-93
2022/05/04 11:01:31;;;;;;;7.53;4.15;;;;;;;24.77;26.25;98106.97;1807661;76;21084;-90
2022/05/04 11:04:16;;;;;;;9.48;4.33;;;;;;;23.52;27.92;98108.74;1790940;78;21007;-92
2022/05/04 11:06:52;;;;;;;5.87;4.28;;;;;;;22.99;28.45;98108.36;1727908;80;21489;-91
2022/05/04 11:09:20;;;;;;;6.20;4.40;;;;;;;22.16;29.58;98107.44;1723052;79;21088;-92
2022/05/04 11:11:48;;;;;;;6.60;4.85;;;;;;;21.64;30.29;98106.16;1714089;81;21677;-81
2022/05/04 11:14:16;;;;;;;5.03;4.42;;;;;;;21.10;31.78;98111.97;1737477;81;21800;-80
2022/05/04 11:16:43;;;;;;;5.28;4.20;;;;;;;20.92;31.92;98111.42;1763040;78;21410;-81
2022/05/04 11:19:11;;;;;;;6.75;5.00;;;;;;;20.75;31.78;98110.27;1803605;76;21032;-81
2022/05/04 11:21:37;;;;;;;6.45;4.40;;;;;;;22.25;30.31;98111.41;1778192;77;21144;-81
2022/05/04 11:24:06;;;;;;;5.40;4.33;;;;;;;22.21;30.00;98106.35;1790336;78;22572;-81
2022/05/04 11:26:41;;;;;;;6.15;3.77;;;;;;;23.32;28.73;98107.09;1793542;78;21445;-81
2022/05/04 11:29:24;;;;;;;5.65;4.10;;;;;;;24.91;27.18;98103.64;1806610;78;21073;-81
2022/05/04 11:31:58;;;;;;;4.72;3.77;;;;;;;27.16;25.13;98098.09;1797153;78;21649;-81
2022/05/04 11:34:33;;;;;;;10.08;4.85;;;;;;;27.77;24.93;98097.87;1792994;76;22117;-81
2022/05/04 11:37:10;;;;;;;8.60;4.53;;;;;;;27.35;25.06;98097.63;1797734;78;21036;-81
2022/05/04 11:39:37;;;;;;;5.00;3.58;;;;;;;26.85;24.97;98097.27;1805287;77;21952;-82
2022/05/04 11:42:04;;;;;;;5.83;4.17;;;;;;;26.55;24.91;98100.17;1799991;78;21018;-91
2022/05/04 11:44:30;;;;;;;7.70;3.95;;;;;;;26.24;24.78;98100.06;1788206;78;21060;-94
2022/05/04 11:46:59;;;;;;;5.15;4.00;;;;;;;26.12;24.93;98097.75;1812737;77;20966;-94
2022/05/04 11:49:29;;;;;;;8.58;4.22;;;;;;;26.64;23.79;98090.92;1793903;77;21054;-81
2022/05/04 11:51:56;;;;;;;4.92;3.52;;;;;;;26.49;23.18;98091.41;1794145;77;22347;-81
2022/05/04 11:54:22;;;;;;;7.83;4.22;;;;;;;24.58;26.19;98091.23;1748885;79;21064;-89
2022/05/04 11:56:48;;;;;;;9.48;4.90;;;;;;;24.07;26.87;98093.45;1790866;78;20888;-93
2022/05/04 11:59:14;;;;;;;17.77;12.82;;;;;;;23.20;28.65;98083.74;1790415;78;20951;-92
2022/05/04 12:01:43;;;;;;;14.33;10.13;;;;;;;22.75;29.36;98080.91;1788256;78;21375;-89